sensor_id;sensor_type;location;lat;lon;timestamp;pressure;altitude;pressure_sealevel;temperature;humidity
57376;BME280;44805;45.048;5.062;2023-02-15T00:02:28;100965.06;;;2.84;82.72
57376;BME280;44805;45.048;5.062;2023-02-15T00:05:04;100963.94;;;2.90;82.71
57376;BME280;44805;45.048;5.062;2023-02-15T00:07:42;101060.63;;;3.39;83.12
57376;BME280;44805;45.048;5.062;2023-02-15T00:21:16;101035.13;;;3.08;83.49
57376;BME280;44805;45.048;5.062;2023-02-15T00:23:48;100948.44;;;2.49;83.85
57376;BME280;44805;45.048;5.062;2023-02-15T00:37:05;100943.50;;;2.43;85.11
57376;BME280;44805;45.048;5.062;2023-02-15T00:43:11;101086.66;;;3.39;85.94
57376;BME280;44805;45.048;5.062;2023-02-15T01:43:40;101118.06;;;2.74;89.65
57376;BME280;44805;45.048;5.062;2023-02-15T02:52:04;101108.19;;;1.98;93.38
57376;BME280;44805;45.048;5.062;2023-02-15T02:55:27;101100.56;;;1.93;93.46
57376;BME280;44805;45.048;5.062;2023-02-15T05:34:53;100999.34;;;1.25;100.00
57376;BME280;44805;45.048;5.062;2023-02-15T05:42:05;100958.88;;;0.98;100.00
57376;BME280;44805;45.048;5.062;2023-02-15T05:50:29;101102.69;;;1.38;100.00
57376;BME280;44805;45.048;5.062;2023-02-15T08:03:51;101016.22;;;3.78;92.01
57376;BME280;44805;45.048;5.062;2023-02-15T08:06:16;101033.72;;;3.57;94.62
57376;BME280;44805;45.048;5.062;2023-02-15T09:17:51;101021.72;;;6.65;89.55
57376;BME280;44805;45.048;5.062;2023-02-15T09:20:23;101042.25;;;6.71;89.62
57376;BME280;44805;45.048;5.062;2023-02-15T09:23:20;101072.75;;;6.87;90.46
57376;BME280;44805;45.048;5.062;2023-02-15T09:32:44;101023.97;;;7.00;90.90
57376;BME280;44805;45.048;5.062;2023-02-15T09:35:18;100924.78;;;6.24;90.92
57376;BME280;44805;45.048;5.062;2023-02-15T09:38:28;101010.50;;;6.78;91.69
57376;BME280;44805;45.048;5.062;2023-02-15T09:48:39;101109.06;;;7.50;93.13
57376;BME280;44805;45.048;5.062;2023-02-15T09:51:30;101116.56;;;7.56;93.07
57376;BME280;44805;45.048;5.062;2023-02-15T09:54:26;101036.41;;;7.25;91.69
57376;BME280;44805;45.048;5.062;2023-02-15T09:57:03;101013.94;;;7.07;92.02
57376;BME280;44805;45.048;5.062;2023-02-15T09:59:41;101103.53;;;7.69;91.49
57376;BME280;44805;45.048;5.062;2023-02-15T10:05:16;101104.16;;;7.87;90.87
57376;BME280;44805;45.048;5.062;2023-02-15T10:47:24;101065.94;;;9.52;82.93
57376;BME280;44805;45.048;5.062;2023-02-15T10:50:20;101065.91;;;9.65;82.21
57376;BME280;44805;45.048;5.062;2023-02-15T10:56:12;101054.38;;;9.79;81.11
57376;BME280;44805;45.048;5.062;2023-02-15T10:58:51;101052.59;;;10.04;80.33
57376;BME280;44805;45.048;5.062;2023-02-15T11:01:43;100907.84;;;9.33;78.76
57376;BME280;44805;45.048;5.062;2023-02-15T11:04:39;101010.25;;;10.31;76.85
57376;BME280;44805;45.048;5.062;2023-02-15T11:07:43;100896.22;;;9.84;74.79
57376;BME280;44805;45.048;5.062;2023-02-15T11:16:35;100881.75;;;10.58;67.00
57376;BME280;44805;45.048;5.062;2023-02-15T11:19:08;101029.97;;;11.50;67.02
57376;BME280;44805;45.048;5.062;2023-02-15T11:21:44;100959.56;;;11.07;66.33
57376;BME280;44805;45.048;5.062;2023-02-15T11:24:14;101014.34;;;11.59;64.85
57376;BME280;44805;45.048;5.062;2023-02-15T11:31:59;100860.41;;;10.73;65.16
57376;BME280;44805;45.048;5.062;2023-02-15T11:34:32;100844.88;;;10.70;64.77
57376;BME280;44805;45.048;5.062;2023-02-15T11:37:06;100873.72;;;10.82;64.84
57376;BME280;44805;45.048;5.062;2023-02-15T11:39:37;100997.38;;;11.84;65.02
57376;BME280;44805;45.048;5.062;2023-02-15T11:42:19;100987.63;;;11.84;65.74
57376;BME280;44805;45.048;5.062;2023-02-15T11:45:10;100993.63;;;11.98;64.90
57376;BME280;44805;45.048;5.062;2023-02-15T11:47:47;100926.84;;;11.54;65.76
57376;BME280;44805;45.048;5.062;2023-02-15T11:50:21;100825.34;;;11.16;66.08
57376;BME280;44805;45.048;5.062;2023-02-15T11:52:52;100972.69;;;12.06;65.33
57376;BME280;44805;45.048;5.062;2023-02-15T11:55:21;100931.16;;;11.55;66.61
57376;BME280;44805;45.048;5.062;2023-02-15T12:04:40;100919.31;;;12.23;65.40
57376;BME280;44805;45.048;5.062;2023-02-15T12:07:14;100927.78;;;12.48;64.04
57376;BME280;44805;45.048;5.062;2023-02-15T12:12:41;100824.19;;;12.04;63.17
57376;BME280;44805;45.048;5.062;2023-02-15T12:15:09;100899.16;;;12.53;63.47
57376;BME280;44805;45.048;5.062;2023-02-15T12:17:49;100878.03;;;12.53;62.08
57376;BME280;44805;45.048;5.062;2023-02-15T12:23:10;100813.69;;;12.23;62.28
57376;BME280;44805;45.048;5.062;2023-02-15T12:25:42;100793.19;;;12.06;62.82
57376;BME280;44805;45.048;5.062;2023-02-15T12:28:51;100944.97;;;13.03;62.38
57376;BME280;44805;45.048;5.062;2023-02-15T12:31:36;100819.75;;;12.45;61.29
57376;BME280;44805;45.048;5.062;2023-02-15T12:34:29;100790.38;;;12.28;60.79
57376;BME280;44805;45.048;5.062;2023-02-15T12:36:57;100949.03;;;13.17;61.35
57376;BME280;44805;45.048;5.062;2023-02-15T12:39:27;100792.91;;;12.40;60.99
57376;BME280;44805;45.048;5.062;2023-02-15T12:42:16;100937.78;;;13.15;60.90
57376;BME280;44805;45.048;5.062;2023-02-15T12:45:00;100851.75;;;12.51;61.38
57376;BME280;44805;45.048;5.062;2023-02-15T12:47:30;100831.59;;;12.50;61.31
57376;BME280;44805;45.048;5.062;2023-02-15T12:52:49;100850.22;;;12.49;61.29
57376;BME280;44805;45.048;5.062;2023-02-15T12:55:26;100837.59;;;12.22;61.47
57376;BME280;44805;45.048;5.062;2023-02-15T13:04:47;100771.78;;;12.40;62.21
57376;BME280;44805;45.048;5.062;2023-02-15T13:07:16;100819.44;;;12.78;61.44
57376;BME280;44805;45.048;5.062;2023-02-15T13:10:20;100745.13;;;12.52;61.09
57376;BME280;44805;45.048;5.062;2023-02-15T13:16:11;100859.88;;;13.39;60.10
57376;BME280;44805;45.048;5.062;2023-02-15T13:18:42;100833.16;;;13.42;59.81
57376;BME280;44805;45.048;5.062;2023-02-15T13:23:43;100769.38;;;13.16;60.34
57376;BME280;44805;45.048;5.062;2023-02-15T13:26:18;100865.38;;;13.94;59.18
57376;BME280;44805;45.048;5.062;2023-02-15T13:32:12;100852.63;;;13.60;58.89
57376;BME280;44805;45.048;5.062;2023-02-15T13:34:42;100770.22;;;13.36;58.34
57376;BME280;44805;45.048;5.062;2023-02-15T13:37:42;100832.94;;;13.82;58.54
57376;BME280;44805;45.048;5.062;2023-02-15T13:40:40;100891.69;;;14.15;57.67
57376;BME280;44805;45.048;5.062;2023-02-15T13:46:38;100897.03;;;13.86;53.59
57376;BME280;44805;45.048;5.062;2023-02-15T13:54:54;100744.34;;;12.91;52.77
57376;BME280;44805;45.048;5.062;2023-02-15T14:07:24;100882.09;;;14.04;53.96
57376;BME280;44805;45.048;5.062;2023-02-15T14:16:09;100885.66;;;14.23;53.21
57376;BME280;44805;45.048;5.062;2023-02-15T14:18:46;100795.69;;;13.56;50.73
57376;BME280;44805;45.048;5.062;2023-02-15T14:21:17;100882.09;;;14.04;49.95
57376;BME280;44805;45.048;5.062;2023-02-15T14:26:52;100879.00;;;14.09;49.14
57376;BME280;44805;45.048;5.062;2023-02-15T14:29:28;100885.00;;;14.11;50.88
57376;BME280;44805;45.048;5.062;2023-02-15T14:32:09;100822.81;;;13.58;50.67
57376;BME280;44805;45.048;5.062;2023-02-15T14:37:13;100732.06;;;13.09;48.85
57376;BME280;44805;45.048;5.062;2023-02-15T14:39:55;100733.75;;;13.10;49.14
57376;BME280;44805;45.048;5.062;2023-02-15T14:43:24;100729.00;;;12.94;49.20
57376;BME280;44805;45.048;5.062;2023-02-15T14:45:56;100867.38;;;13.82;49.54
57376;BME280;44805;45.048;5.062;2023-02-15T14:48:39;100804.00;;;13.22;50.01
57376;BME280;44805;45.048;5.062;2023-02-15T14:51:06;100719.13;;;12.77;50.04
57376;BME280;44805;45.048;5.062;2023-02-15T14:53:37;100801.41;;;13.32;49.90
57376;BME280;44805;45.048;5.062;2023-02-15T15:05:29;100869.72;;;13.76;51.29
57376;BME280;44805;45.048;5.062;2023-02-15T15:07:58;100702.31;;;12.78;51.48
57376;BME280;44805;45.048;5.062;2023-02-15T15:10:43;100767.69;;;13.24;49.40
57376;BME280;44805;45.048;5.062;2023-02-15T15:16:55;100856.78;;;13.73;49.74
57376;BME280;44805;45.048;5.062;2023-02-15T15:22:21;100809.75;;;13.47;49.72
57376;BME280;44805;45.048;5.062;2023-02-15T15:24:54;100717.88;;;12.81;50.72
57376;BME280;44805;45.048;5.062;2023-02-15T15:31:00;100712.72;;;12.79;49.99
57376;BME280;44805;45.048;5.062;2023-02-15T15:42:12;100726.50;;;12.73;51.76
57376;BME280;44805;45.048;5.062;2023-02-15T15:50:13;100733.44;;;12.45;53.02
57376;BME280;44805;45.048;5.062;2023-02-15T15:52:43;100830.84;;;12.89;54.64
57376;BME280;44805;45.048;5.062;2023-02-15T15:55:17;100728.41;;;12.32;54.02
57376;BME280;44805;45.048;5.062;2023-02-15T15:57:46;100799.09;;;12.69;52.65
57376;BME280;44805;45.048;5.062;2023-02-15T16:00:43;100875.16;;;13.16;52.03
57376;BME280;44805;45.048;5.062;2023-02-15T16:03:27;100749.81;;;12.29;53.06
57376;BME280;44805;45.048;5.062;2023-02-15T16:05:52;100872.47;;;13.06;52.68
57376;BME280;44805;45.048;5.062;2023-02-15T16:08:30;100881.78;;;12.91;53.71
57376;BME280;44805;45.048;5.062;2023-02-15T16:10:57;100880.63;;;12.84;53.40
57376;BME280;44805;45.048;5.062;2023-02-15T16:13:23;100742.97;;;11.86;54.73
57376;BME280;44805;45.048;5.062;2023-02-15T16:15:51;100871.38;;;12.58;54.18
57376;BME280;44805;45.048;5.062;2023-02-15T16:18:23;100745.81;;;11.73;54.24
57376;BME280;44805;45.048;5.062;2023-02-15T16:21:01;100752.06;;;11.82;53.89
57376;BME280;44805;45.048;5.062;2023-02-15T16:29:12;100782.88;;;11.30;58.60
57376;BME280;44805;45.048;5.062;2023-02-15T16:31:38;100833.69;;;11.53;58.23
57376;BME280;44805;45.048;5.062;2023-02-15T16:34:10;100834.00;;;11.60;57.48
57376;BME280;44805;45.048;5.062;2023-02-15T16:36:43;100821.44;;;11.31;57.54
57376;BME280;44805;45.048;5.062;2023-02-15T16:39:19;100750.47;;;10.86;58.01
57376;BME280;44805;45.048;5.062;2023-02-15T16:41:46;100755.53;;;10.78;58.29
57376;BME280;44805;45.048;5.062;2023-02-15T16:44:18;100737.59;;;10.72;57.82
57376;BME280;44805;45.048;5.062;2023-02-15T16:46:49;100809.72;;;11.24;57.34
57376;BME280;44805;45.048;5.062;2023-02-15T16:49:22;100748.28;;;10.91;56.67
57376;BME280;44805;45.048;5.062;2023-02-15T16:52:07;100786.16;;;10.90;58.18
57376;BME280;44805;45.048;5.062;2023-02-15T16:54:37;100733.44;;;10.58;57.36
57376;BME280;44805;45.048;5.062;2023-02-15T16:57:02;100808.97;;;11.01;57.48
57376;BME280;44805;45.048;5.062;2023-02-15T17:03:06;100817.41;;;10.83;57.71
57376;BME280;44805;45.048;5.062;2023-02-15T17:08:31;100908.25;;;11.23;58.05
57376;BME280;44805;45.048;5.062;2023-02-15T17:11:19;100919.09;;;10.97;58.92
57376;BME280;44805;45.048;5.062;2023-02-15T17:19:28;100831.88;;;9.76;60.92
57376;BME280;44805;45.048;5.062;2023-02-15T17:22:03;100855.44;;;9.78;61.41
57376;BME280;44805;45.048;5.062;2023-02-15T17:24:41;100872.03;;;9.67;62.60
57376;BME280;44805;45.048;5.062;2023-02-15T17:27:16;100925.06;;;9.85;62.67
57376;BME280;44805;45.048;5.062;2023-02-15T17:29:58;100932.31;;;9.82;62.09
57376;BME280;44805;45.048;5.062;2023-02-15T17:32:26;100773.75;;;8.86;61.88
57376;BME280;44805;45.048;5.062;2023-02-15T17:34:59;100926.56;;;9.76;61.37
57376;BME280;44805;45.048;5.062;2023-02-15T17:40:23;100937.72;;;9.56;62.07
57376;BME280;44805;45.048;5.062;2023-02-15T17:42:49;100874.25;;;9.01;62.28
57376;BME280;44805;45.048;5.062;2023-02-15T17:48:40;100848.13;;;8.87;61.31
57376;BME280;44805;45.048;5.062;2023-02-15T17:51:12;100945.44;;;9.46;60.57
57376;BME280;44805;45.048;5.062;2023-02-15T17:53:38;100950.06;;;9.43;60.24
57376;BME280;44805;45.048;5.062;2023-02-15T17:56:04;100896.16;;;9.13;60.83
57376;BME280;44805;45.048;5.062;2023-02-15T17:58:41;100869.13;;;8.87;60.41
57376;BME280;44805;45.048;5.062;2023-02-15T18:01:13;100878.06;;;8.84;60.79
57376;BME280;44805;45.048;5.062;2023-02-15T18:04:03;100954.41;;;9.31;61.22
57376;BME280;44805;45.048;5.062;2023-02-15T18:06:50;100897.69;;;8.91;60.98
57376;BME280;44805;45.048;5.062;2023-02-15T18:09:34;100903.50;;;8.84;63.34
57376;BME280;44805;45.048;5.062;2023-02-15T18:18:45;100875.72;;;8.30;64.65
57376;BME280;44805;45.048;5.062;2023-02-15T18:21:31;100817.38;;;7.88;66.26
57376;BME280;44805;45.048;5.062;2023-02-15T18:24:00;100783.19;;;7.51;65.83
57376;BME280;44805;45.048;5.062;2023-02-15T18:29:13;100927.53;;;8.14;67.20
57376;BME280;44805;45.048;5.062;2023-02-15T18:32:00;100966.38;;;8.21;67.93
57376;BME280;44805;45.048;5.062;2023-02-15T18:34:32;100898.34;;;7.80;67.97
57376;BME280;44805;45.048;5.062;2023-02-15T18:37:03;100928.84;;;7.81;68.02
57376;BME280;44805;45.048;5.062;2023-02-15T18:39:41;100902.44;;;7.44;69.47
57376;BME280;44805;45.048;5.062;2023-02-15T18:42:30;100873.63;;;7.17;68.92
57376;BME280;44805;45.048;5.062;2023-02-15T18:45:24;100884.97;;;7.17;69.63
57376;BME280;44805;45.048;5.062;2023-02-15T18:47:54;100852.47;;;6.93;68.61
57376;BME280;44805;45.048;5.062;2023-02-15T22:06:27;100894.91;;;4.25;80.58
57376;BME280;44805;45.048;5.062;2023-02-15T22:08:55;100840.34;;;4.04;80.45
57376;BME280;44805;45.048;5.062;2023-02-15T22:11:23;100953.59;;;4.83;80.50
57376;BME280;44805;45.048;5.062;2023-02-15T22:13:49;100861.41;;;4.17;81.72
57376;BME280;44805;45.048;5.062;2023-02-15T22:19:52;100916.97;;;4.35;82.83
57376;BME280;44805;45.048;5.062;2023-02-15T22:22:18;100896.16;;;4.18;84.48
57376;BME280;44805;45.048;5.062;2023-02-15T22:24:44;100842.69;;;3.93;84.47
57376;BME280;44805;45.048;5.062;2023-02-15T22:27:21;100847.91;;;3.93;84.11
57376;BME280;44805;45.048;5.062;2023-02-15T22:29:52;100873.84;;;4.12;83.85
57376;BME280;44805;45.048;5.062;2023-02-15T22:32:37;101016.53;;;5.10;85.18
57376;BME280;44805;45.048;5.062;2023-02-15T22:35:02;100824.13;;;3.99;84.99
57376;BME280;44805;45.048;5.062;2023-02-15T22:37:28;100806.22;;;3.76;85.43
57376;BME280;44805;45.048;5.062;2023-02-15T22:39:54;100924.91;;;4.49;86.29
57376;BME280;44805;45.048;5.062;2023-02-15T22:42:24;100873.53;;;4.18;86.06
57376;BME280;44805;45.048;5.062;2023-02-15T22:44:53;100830.25;;;3.98;85.25
57376;BME280;44805;45.048;5.062;2023-02-15T22:54:06;100960.09;;;4.07;87.02
57376;BME280;44805;45.048;5.062;2023-02-15T22:56:38;100836.63;;;3.23;87.69
57376;BME280;44805;45.048;5.062;2023-02-15T22:59:12;100951.56;;;3.69;87.98
57376;BME280;44805;45.048;5.062;2023-02-15T23:05:02;100943.66;;;3.70;88.29
57376;BME280;44805;45.048;5.062;2023-02-15T23:07:27;100829.81;;;3.03;88.11
57376;BME280;44805;45.048;5.062;2023-02-15T23:09:53;101029.47;;;4.27;88.14
57376;BME280;44805;45.048;5.062;2023-02-15T23:12:24;100921.53;;;3.62;88.40
57376;BME280;44805;45.048;5.062;2023-02-15T23:14:54;100851.25;;;3.25;87.03
57376;BME280;44805;45.048;5.062;2023-02-15T23:17:39;100985.97;;;3.76;88.55
57376;BME280;44805;45.048;5.062;2023-02-15T23:20:04;100980.34;;;3.66;88.94
57376;BME280;44805;45.048;5.062;2023-02-15T23:22:30;100860.25;;;2.82;88.75
57376;BME280;44805;45.048;5.062;2023-02-15T23:24:56;100870.72;;;2.99;88.67
57376;BME280;44805;45.048;5.062;2023-02-15T23:27:23;100977.63;;;3.69;88.73
57376;BME280;44805;45.048;5.062;2023-02-15T23:30:16;100872.47;;;2.99;88.14
57376;BME280;44805;45.048;5.062;2023-02-15T23:36:04;100864.53;;;2.64;89.80
57376;BME280;44805;45.048;5.062;2023-02-15T23:38:31;100990.09;;;3.43;89.21
57376;BME280;44805;45.048;5.062;2023-02-15T23:40:59;100892.81;;;2.91;90.02
57376;BME280;44805;45.048;5.062;2023-02-15T23:43:55;100894.22;;;2.98;89.65
57376;BME280;44805;45.048;5.062;2023-02-15T23:46:47;101054.94;;;3.86;89.04
57376;BME280;44805;45.048;5.062;2023-02-15T23:49:15;100983.72;;;3.32;90.74
57376;BME280;44805;45.048;5.062;2023-02-15T23:51:50;100969.34;;;3.23;89.34
57376;BME280;44805;45.048;5.062;2023-02-15T23:54:18;100984.44;;;3.16;91.13
57376;BME280;44805;45.048;5.062;2023-02-15T23:56:47;100927.53;;;2.90;90.78
57376;BME280;44805;45.048;5.062;2023-02-15T23:59:25;101055.34;;;3.59;91.33
